메인 페이지
METAR-TAF:

METAR-TAF

공항 :

라 아우로라 국제공항

과테말라, 과테말라

위도: 14-35N, 경도: 090-31W, 고도: 1489m

현재 날씨관측

예보는 10분 전, 11:00시(UTC)에 발표되었습니다.
6kt
온도 20°C
습도 94%
기압 1020 hPa
시정: 5000m
고도 400ft 상공 구름 보통
고도 1000ft 상공 구름 많음
박무,

METAR: MGGT 251100Z 19006KT 5000 BR SCT004 BKN010 20/19 Q1020 A3012

시각: 05:10 (11:10 UTC)

예보

예보는 6 시간 10분 전, 05:00시(UTC)에 발표되었습니다.
예보 대상 시간: 25일 06시부터 26일 06시까지 (UTC)
남남서8kt
시정: 6000m
고도 1600ft 상공 구름 조금
확률 30% :
일시적
25일 08시부터 25일 14시까지 (UTC)
시정: 5000m
고도 1200ft 상공 구름 많음
박무
전환 중
25일 14시부터 25일 16시까지 (UTC)
14kt
고도 1800ft 상공 구름 조금
전환 중
25일 20시부터 25일 22시까지 (UTC)
고도 2000ft 상공 구름 보통, 타워링 적운.
전환 중
26일 02시부터 26일 04시까지 (UTC)
남남서8kt
고도 1600ft 상공 구름 보통

TAF: MGGT 250500Z 2506/2606 20008KT 6000 FEW016 TX29/2520Z TN18/2512Z PROB30 TEMPO 2508/2514 5000 BR BKN012 BECMG 2514/2516 18014KT FEW018 BECMG 2520/2522 SCT020TCU BECMG 2602/2604 20008KT SCT016

4,000개 이상의 공항 관측 자료 및 예보 (METAR 및 TAF 보고).

지도상에서 검색 가능한 기상관측소가 노란 점과 빨간 점으로 표시되어 있습니다.

기상관측소 명을 보려면 표시 위로 마우스를 이동하세요.

날씨 관측과 예보를 보려면 클릭하세요.

지도 변경 : 확대하려면 엑스 표시가 있는 녹색 버튼, 축소하려면 빼기 표시가 있는 녹색 버튼, 다음 페이지의 지도를 보려면 녹색 화살표를 클릭하세요.


METAR-TAF: